SCO17EG EGPH-EGGD
Flight info
| Callsign | SCO17EG |
|---|---|
| Flight time | 0h 54m |
| Altitude | 33000 |
| Route | GOSAM P600 FENIK L612 NAVSO DCT ADZOP DCT EGTOC DCT NOKIN N862 KARNO/N0409F320 DCT ALHUP DCT LUCSA/N0357F230 N862 WEVBE |
| Aircraft | A320/M-SDE3FGHIRWY/LB1 |
Departure
| Time | 2026-04-25 22:04 |
|---|---|
| Airport | Edinburgh Airport (EGPH) |
Arrival
| Time | 2026-04-25 22:59 |
|---|---|
| Airport | Bristol Airport (EGGD) |
| Time | Latitude | Longitude | Altitude | Speed | Heading |
|---|---|---|---|---|---|
| 2026-04-25 21:11 | 55.94854 | -3.36604 | 114 ft | 0 kts | 145° |
| 2026-04-25 21:12 | 55.94860 | -3.36611 | 113 ft | 0 kts | 145° |
| 2026-04-25 21:50 | 55.94880 | -3.36636 | 112 ft | 4 kts | 145° |
| 2026-04-25 21:50 | 55.94901 | -3.36660 | 112 ft | 4 kts | 167° |
| 2026-04-25 21:51 | 55.94924 | -3.36654 | 115 ft | 4 kts | 223° |
| 2026-04-25 21:51 | 55.94933 | -3.36635 | 112 ft | 0 kts | 239° |
| 2026-04-25 21:53 | 55.94931 | -3.36642 | 112 ft | 5 kts | 239° |
| 2026-04-25 21:53 | 55.94908 | -3.36711 | 114 ft | 5 kts | 239° |
| 2026-04-25 21:53 | 55.94901 | -3.36731 | 114 ft | 0 kts | 238° |
| 2026-04-25 21:55 | 55.94900 | -3.36734 | 116 ft | 3 kts | 238° |
| 2026-04-25 21:55 | 55.94915 | -3.36825 | 116 ft | 10 kts | 316° |
| 2026-04-25 21:56 | 55.94916 | -3.36923 | 115 ft | 9 kts | 243° |
| 2026-04-25 21:56 | 55.94881 | -3.37028 | 114 ft | 18 kts | 239° |
| 2026-04-25 21:56 | 55.94800 | -3.37269 | 115 ft | 16 kts | 239° |
| 2026-04-25 21:56 | 55.94743 | -3.37433 | 112 ft | 15 kts | 239° |
| 2026-04-25 21:57 | 55.94692 | -3.37587 | 114 ft | 14 kts | 239° |
| 2026-04-25 21:57 | 55.94643 | -3.37730 | 113 ft | 13 kts | 239° |
| 2026-04-25 21:57 | 55.94598 | -3.37864 | 114 ft | 12 kts | 239° |
| 2026-04-25 21:57 | 55.94555 | -3.37990 | 114 ft | 11 kts | 239° |
| 2026-04-25 21:58 | 55.94515 | -3.38108 | 115 ft | 11 kts | 239° |
| 2026-04-25 21:58 | 55.94477 | -3.38219 | 114 ft | 10 kts | 239° |
| 2026-04-25 21:58 | 55.94442 | -3.38324 | 113 ft | 9 kts | 239° |
| 2026-04-25 21:58 | 55.94409 | -3.38421 | 115 ft | 9 kts | 239° |
| 2026-04-25 21:59 | 55.94378 | -3.38512 | 114 ft | 8 kts | 239° |
| 2026-04-25 21:59 | 55.94350 | -3.38594 | 115 ft | 8 kts | 239° |
| 2026-04-25 21:59 | 55.94324 | -3.38672 | 114 ft | 7 kts | 239° |
| 2026-04-25 22:00 | 55.94280 | -3.38804 | 116 ft | 6 kts | 248° |
| 2026-04-25 22:00 | 55.94298 | -3.38880 | 114 ft | 7 kts | 323° |
| 2026-04-25 22:00 | 55.94325 | -3.38908 | 114 ft | 0 kts | 330° |
| 2026-04-25 22:01 | 55.94332 | -3.38916 | 115 ft | 5 kts | 330° |
| 2026-04-25 22:02 | 55.94376 | -3.38962 | 114 ft | 7 kts | 328° |
| 2026-04-25 22:02 | 55.94416 | -3.38961 | 114 ft | 6 kts | 39° |
| 2026-04-25 22:02 | 55.94432 | -3.38923 | 114 ft | 0 kts | 58° |
| 2026-04-25 22:03 | 55.94434 | -3.38916 | 114 ft | 4 kts | 58° |
| 2026-04-25 22:04 | 55.94560 | -3.38548 | 112 ft | 74 kts | 59° |
| 2026-04-25 22:04 | 55.94946 | -3.37409 | 111 ft | 138 kts | 59° |
| 2026-04-25 22:04 | 55.95504 | -3.35755 | 421 ft | 163 kts | 59° |
| 2026-04-25 22:04 | 55.96150 | -3.34070 | 1184 ft | 166 kts | 50° |
| 2026-04-25 22:05 | 55.96966 | -3.32582 | 1985 ft | 169 kts | 45° |
| 2026-04-25 22:05 | 55.97855 | -3.31206 | 2756 ft | 171 kts | 42° |
| 2026-04-25 22:05 | 55.98805 | -3.29806 | 3287 ft | 186 kts | 42° |
| 2026-04-25 22:05 | 55.99907 | -3.28369 | 3647 ft | 209 kts | 20° |
| 2026-04-25 22:06 | 56.01345 | -3.28210 | 4309 ft | 209 kts | 342° |
| 2026-04-25 22:06 | 56.02573 | -3.29468 | 5157 ft | 203 kts | 310° |
| 2026-04-25 22:06 | 56.03247 | -3.31702 | 5776 ft | 213 kts | 278° |
| 2026-04-25 22:06 | 56.03124 | -3.34363 | 6478 ft | 220 kts | 255° |
| 2026-04-25 22:07 | 56.02822 | -3.37069 | 7281 ft | 223 kts | 256° |
| 2026-04-25 22:07 | 56.02572 | -3.38898 | 7855 ft | 225 kts | 255° |
| 2026-04-25 22:07 | 56.02029 | -3.42509 | 8979 ft | 229 kts | 253° |
| 2026-04-25 22:07 | 56.01607 | -3.45269 | 9850 ft | 232 kts | 253° |
| 2026-04-25 22:08 | 56.01187 | -3.48069 | 10673 ft | 235 kts | 253° |
| 2026-04-25 22:08 | 56.00769 | -3.50911 | 11460 ft | 238 kts | 253° |
| 2026-04-25 22:08 | 56.00344 | -3.53841 | 12017 ft | 254 kts | 253° |
| 2026-04-25 22:08 | 55.99884 | -3.57034 | 12356 ft | 278 kts | 254° |
| 2026-04-25 22:09 | 55.99379 | -3.60528 | 12670 ft | 302 kts | 254° |
| 2026-04-25 22:09 | 55.98836 | -3.64288 | 13037 ft | 322 kts | 254° |
| 2026-04-25 22:09 | 55.98273 | -3.68205 | 13731 ft | 329 kts | 254° |
| 2026-04-25 22:09 | 55.97700 | -3.72202 | 14471 ft | 334 kts | 254° |
| 2026-04-25 22:10 | 55.97122 | -3.76232 | 15191 ft | 337 kts | 254° |
| 2026-04-25 22:10 | 55.96534 | -3.80303 | 15930 ft | 340 kts | 255° |
| 2026-04-25 22:10 | 55.95939 | -3.84402 | 16668 ft | 343 kts | 255° |
| 2026-04-25 22:10 | 55.95670 | -3.86258 | 16989 ft | 345 kts | 255° |
| 2026-04-25 22:11 | 55.95068 | -3.90418 | 17748 ft | 348 kts | 255° |
| 2026-04-25 22:11 | 55.94460 | -3.94606 | 18480 ft | 350 kts | 255° |
| 2026-04-25 22:11 | 55.93711 | -3.98749 | 19134 ft | 353 kts | 245° |
| 2026-04-25 22:11 | 55.92444 | -4.02496 | 19778 ft | 356 kts | 232° |
| 2026-04-25 22:12 | 55.90672 | -4.05613 | 20404 ft | 360 kts | 218° |
| 2026-04-25 22:12 | 55.88608 | -4.08156 | 21026 ft | 364 kts | 216° |
| 2026-04-25 22:12 | 55.86502 | -4.10717 | 21655 ft | 367 kts | 216° |
| 2026-04-25 22:12 | 55.85078 | -4.12454 | 22065 ft | 369 kts | 216° |
| 2026-04-25 22:13 | 55.82259 | -4.15900 | 22874 ft | 373 kts | 216° |
| 2026-04-25 22:13 | 55.80110 | -4.18529 | 23482 ft | 377 kts | 216° |
| 2026-04-25 22:13 | 55.77943 | -4.21176 | 24040 ft | 380 kts | 216° |
| 2026-04-25 22:13 | 55.75608 | -4.23435 | 24535 ft | 385 kts | 204° |
| 2026-04-25 22:14 | 55.73026 | -4.24792 | 25021 ft | 391 kts | 192° |
| 2026-04-25 22:14 | 55.70291 | -4.25147 | 25225 ft | 397 kts | 180° |
| 2026-04-25 22:14 | 55.67558 | -4.24384 | 25282 ft | 401 kts | 167° |
| 2026-04-25 22:14 | 55.64904 | -4.22622 | 25283 ft | 404 kts | 157° |
| 2026-04-25 22:15 | 55.62425 | -4.20245 | 25279 ft | 406 kts | 153° |
| 2026-04-25 22:15 | 55.59992 | -4.17844 | 25277 ft | 406 kts | 154° |
| 2026-04-25 22:15 | 55.57522 | -4.15425 | 25274 ft | 406 kts | 154° |
| 2026-04-25 22:16 | 55.52579 | -4.10619 | 25265 ft | 405 kts | 154° |
| 2026-04-25 22:16 | 55.50108 | -4.08224 | 25265 ft | 405 kts | 154° |
| 2026-04-25 22:16 | 55.47635 | -4.05827 | 25267 ft | 405 kts | 154° |
| 2026-04-25 22:16 | 55.45130 | -4.03398 | 25254 ft | 406 kts | 154° |
| 2026-04-25 22:17 | 55.42648 | -4.00991 | 25598 ft | 410 kts | 154° |
| 2026-04-25 22:17 | 55.40177 | -3.98594 | 26087 ft | 412 kts | 154° |
| 2026-04-25 22:17 | 55.37628 | -3.96128 | 26564 ft | 415 kts | 154° |
| 2026-04-25 22:17 | 55.35120 | -3.93704 | 27008 ft | 417 kts | 154° |
| 2026-04-25 22:18 | 55.32573 | -3.91243 | 27441 ft | 420 kts | 154° |
| 2026-04-25 22:18 | 55.30010 | -3.88773 | 27869 ft | 422 kts | 154° |
| 2026-04-25 22:18 | 55.27418 | -3.86286 | 28304 ft | 425 kts | 154° |
| 2026-04-25 22:18 | 55.24823 | -3.83801 | 28700 ft | 428 kts | 154° |
| 2026-04-25 22:19 | 55.22165 | -3.81444 | 29077 ft | 428 kts | 160° |
| 2026-04-25 22:19 | 55.19316 | -3.79701 | 29458 ft | 429 kts | 165° |
| 2026-04-25 22:19 | 55.16494 | -3.78148 | 29822 ft | 432 kts | 166° |
| 2026-04-25 22:19 | 55.13624 | -3.76580 | 30199 ft | 434 kts | 166° |
| 2026-04-25 22:20 | 55.10734 | -3.75004 | 30537 ft | 437 kts | 166° |
| 2026-04-25 22:20 | 55.07819 | -3.73415 | 30861 ft | 438 kts | 166° |
| 2026-04-25 22:20 | 55.04909 | -3.71826 | 31179 ft | 440 kts | 165° |
| 2026-04-25 22:20 | 55.01985 | -3.70233 | 31496 ft | 441 kts | 165° |
| 2026-04-25 22:21 | 54.99046 | -3.68638 | 31807 ft | 443 kts | 165° |
| 2026-04-25 22:21 | 54.96100 | -3.67039 | 32158 ft | 443 kts | 165° |
| 2026-04-25 22:21 | 54.93164 | -3.65444 | 32568 ft | 441 kts | 165° |
| 2026-04-25 22:21 | 54.90230 | -3.63853 | 32991 ft | 440 kts | 165° |
| 2026-04-25 22:22 | 54.87315 | -3.62277 | 33225 ft | 439 kts | 165° |
| 2026-04-25 22:22 | 54.84427 | -3.60721 | 33267 ft | 427 kts | 165° |
| 2026-04-25 22:22 | 54.81634 | -3.59209 | 33269 ft | 415 kts | 165° |
| 2026-04-25 22:23 | 54.76163 | -3.56253 | 33265 ft | 410 kts | 166° |
| 2026-04-25 22:23 | 54.70716 | -3.53332 | 33264 ft | 409 kts | 166° |
| 2026-04-25 22:24 | 54.65273 | -3.50424 | 33259 ft | 410 kts | 166° |
| 2026-04-25 22:24 | 54.59817 | -3.47511 | 33258 ft | 410 kts | 166° |
| 2026-04-25 22:25 | 54.54370 | -3.44612 | 33253 ft | 410 kts | 166° |
| 2026-04-25 22:25 | 54.48920 | -3.41713 | 33254 ft | 410 kts | 166° |
| 2026-04-25 22:26 | 54.43474 | -3.38834 | 33239 ft | 410 kts | 166° |
| 2026-04-25 22:26 | 54.38024 | -3.35958 | 33234 ft | 410 kts | 166° |
| 2026-04-25 22:27 | 54.32565 | -3.33083 | 33238 ft | 411 kts | 166° |
| 2026-04-25 22:27 | 54.27663 | -3.30516 | 33260 ft | 415 kts | 166° |
| 2026-04-25 22:28 | 54.23075 | -3.28106 | 33271 ft | 414 kts | 166° |
| 2026-04-25 22:28 | 54.17538 | -3.25510 | 33251 ft | 410 kts | 175° |
| 2026-04-25 22:29 | 54.11886 | -3.24571 | 33249 ft | 408 kts | 178° |
| 2026-04-25 22:29 | 54.06227 | -3.23699 | 33242 ft | 408 kts | 178° |
| 2026-04-25 22:30 | 53.97776 | -3.21884 | 33232 ft | 411 kts | 170° |
| 2026-04-25 22:30 | 53.93105 | -3.20083 | 33224 ft | 411 kts | 171° |
| 2026-04-25 22:31 | 53.86616 | -3.17622 | 33224 ft | 411 kts | 171° |
| 2026-04-25 22:31 | 53.81035 | -3.15513 | 33227 ft | 411 kts | 171° |
| 2026-04-25 22:32 | 53.75457 | -3.13408 | 33223 ft | 411 kts | 171° |
| 2026-04-25 22:32 | 53.69870 | -3.11305 | 32948 ft | 410 kts | 171° |
| 2026-04-25 22:33 | 53.67063 | -3.10258 | 31860 ft | 420 kts | 171° |
| 2026-04-25 22:33 | 53.64138 | -3.09172 | 31029 ft | 441 kts | 171° |
| 2026-04-25 22:33 | 53.61041 | -3.08025 | 30742 ft | 459 kts | 171° |
| 2026-04-25 22:33 | 53.57936 | -3.06867 | 30500 ft | 466 kts | 171° |
| 2026-04-25 22:34 | 53.54719 | -3.05660 | 30244 ft | 467 kts | 171° |
| 2026-04-25 22:34 | 53.51579 | -3.04481 | 29958 ft | 472 kts | 171° |
| 2026-04-25 22:34 | 53.48354 | -3.03276 | 29674 ft | 476 kts | 171° |
| 2026-04-25 22:34 | 53.45077 | -3.02055 | 29389 ft | 476 kts | 170° |
| 2026-04-25 22:35 | 53.41849 | -3.00852 | 29134 ft | 475 kts | 170° |
| 2026-04-25 22:35 | 53.38626 | -2.99653 | 28867 ft | 473 kts | 170° |
| 2026-04-25 22:35 | 53.35411 | -2.98461 | 28604 ft | 471 kts | 170° |
| 2026-04-25 22:35 | 53.32218 | -2.97283 | 28328 ft | 470 kts | 170° |
| 2026-04-25 22:36 | 53.29035 | -2.96111 | 28061 ft | 468 kts | 170° |
| 2026-04-25 22:36 | 53.25863 | -2.94946 | 27796 ft | 466 kts | 170° |
| 2026-04-25 22:36 | 53.22701 | -2.93785 | 27530 ft | 464 kts | 170° |
| 2026-04-25 22:36 | 53.19555 | -2.92633 | 27282 ft | 463 kts | 171° |
| 2026-04-25 22:37 | 53.16418 | -2.91488 | 27255 ft | 462 kts | 171° |
| 2026-04-25 22:37 | 53.13271 | -2.90343 | 27260 ft | 463 kts | 171° |
| 2026-04-25 22:37 | 53.10127 | -2.89198 | 27257 ft | 463 kts | 171° |
| 2026-04-25 22:37 | 53.06951 | -2.88486 | 27252 ft | 459 kts | 181° |
| 2026-04-25 22:38 | 53.03817 | -2.88624 | 27252 ft | 456 kts | 186° |
| 2026-04-25 22:38 | 53.00603 | -2.88903 | 27245 ft | 456 kts | 186° |
| 2026-04-25 22:38 | 52.97437 | -2.89168 | 27242 ft | 456 kts | 186° |
| 2026-04-25 22:38 | 52.94265 | -2.89430 | 27242 ft | 457 kts | 186° |
| 2026-04-25 22:39 | 52.91097 | -2.89689 | 26993 ft | 454 kts | 186° |
| 2026-04-25 22:39 | 52.87959 | -2.90166 | 26563 ft | 450 kts | 191° |
| 2026-04-25 22:39 | 52.84903 | -2.90889 | 26142 ft | 448 kts | 191° |
| 2026-04-25 22:39 | 52.81824 | -2.91620 | 25726 ft | 446 kts | 191° |
| 2026-04-25 22:40 | 52.78765 | -2.92347 | 25311 ft | 443 kts | 191° |
| 2026-04-25 22:40 | 52.75718 | -2.93068 | 24899 ft | 441 kts | 191° |
| 2026-04-25 22:40 | 52.72700 | -2.93779 | 24486 ft | 438 kts | 190° |
| 2026-04-25 22:40 | 52.69674 | -2.94261 | 24068 ft | 436 kts | 185° |
| 2026-04-25 22:41 | 52.66647 | -2.94507 | 23622 ft | 434 kts | 185° |
| 2026-04-25 22:41 | 52.63648 | -2.94747 | 23131 ft | 431 kts | 185° |
| 2026-04-25 22:41 | 52.60655 | -2.94988 | 22637 ft | 428 kts | 185° |
| 2026-04-25 22:41 | 52.57690 | -2.95228 | 22169 ft | 425 kts | 185° |
| 2026-04-25 22:42 | 52.54748 | -2.95471 | 21699 ft | 422 kts | 185° |
| 2026-04-25 22:42 | 52.51826 | -2.95717 | 21235 ft | 420 kts | 185° |
| 2026-04-25 22:42 | 52.48915 | -2.95963 | 20785 ft | 417 kts | 185° |
| 2026-04-25 22:42 | 52.46021 | -2.96204 | 20322 ft | 414 kts | 185° |
| 2026-04-25 22:43 | 52.43156 | -2.96444 | 19883 ft | 412 kts | 185° |
| 2026-04-25 22:43 | 52.40301 | -2.96681 | 19449 ft | 409 kts | 185° |
| 2026-04-25 22:43 | 52.37464 | -2.96914 | 19023 ft | 407 kts | 185° |
| 2026-04-25 22:43 | 52.34635 | -2.97143 | 18599 ft | 405 kts | 185° |
| 2026-04-25 22:44 | 52.31843 | -2.97367 | 18130 ft | 400 kts | 185° |
| 2026-04-25 22:44 | 52.29071 | -2.97593 | 17656 ft | 396 kts | 185° |
| 2026-04-25 22:44 | 52.26328 | -2.97819 | 17182 ft | 393 kts | 185° |
| 2026-04-25 22:44 | 52.23604 | -2.98044 | 16707 ft | 390 kts | 185° |
| 2026-04-25 22:45 | 52.20898 | -2.98264 | 16314 ft | 387 kts | 184° |
| 2026-04-25 22:45 | 52.18209 | -2.98481 | 16214 ft | 387 kts | 184° |
| 2026-04-25 22:45 | 52.15524 | -2.98700 | 16235 ft | 387 kts | 184° |
| 2026-04-25 22:45 | 52.12826 | -2.98920 | 16243 ft | 387 kts | 184° |
| 2026-04-25 22:46 | 52.10142 | -2.99138 | 16238 ft | 387 kts | 184° |
| 2026-04-25 22:46 | 52.07445 | -2.99358 | 16238 ft | 387 kts | 184° |
| 2026-04-25 22:46 | 52.04749 | -2.99576 | 16238 ft | 387 kts | 184° |
| 2026-04-25 22:46 | 52.02056 | -2.99793 | 15900 ft | 386 kts | 184° |
| 2026-04-25 22:47 | 51.99391 | -3.00007 | 15632 ft | 379 kts | 184° |
| 2026-04-25 22:47 | 51.96796 | -3.00200 | 15377 ft | 368 kts | 181° |
| 2026-04-25 22:47 | 51.94298 | -2.99747 | 15152 ft | 358 kts | 166° |
| 2026-04-25 22:47 | 51.91974 | -2.98459 | 14916 ft | 349 kts | 160° |
| 2026-04-25 22:48 | 51.89734 | -2.97111 | 14686 ft | 340 kts | 160° |
| 2026-04-25 22:48 | 51.87545 | -2.95795 | 14456 ft | 331 kts | 160° |
| 2026-04-25 22:48 | 51.85401 | -2.94509 | 14169 ft | 326 kts | 160° |
| 2026-04-25 22:48 | 51.83288 | -2.93243 | 13806 ft | 322 kts | 160° |
| 2026-04-25 22:49 | 51.81199 | -2.91995 | 13436 ft | 318 kts | 160° |
| 2026-04-25 22:49 | 51.79127 | -2.90762 | 13066 ft | 315 kts | 160° |
| 2026-04-25 22:49 | 51.77086 | -2.89550 | 12704 ft | 312 kts | 160° |
| 2026-04-25 22:49 | 51.75062 | -2.88350 | 12342 ft | 308 kts | 160° |
| 2026-04-25 22:50 | 51.73052 | -2.87158 | 11911 ft | 308 kts | 160° |
| 2026-04-25 22:50 | 51.71038 | -2.85984 | 11482 ft | 307 kts | 164° |
| 2026-04-25 22:50 | 51.68980 | -2.85106 | 11066 ft | 305 kts | 169° |
| 2026-04-25 22:50 | 51.66883 | -2.85111 | 10653 ft | 302 kts | 194° |
| 2026-04-25 22:51 | 51.64989 | -2.86488 | 10245 ft | 299 kts | 213° |
| 2026-04-25 22:51 | 51.63269 | -2.88352 | 9787 ft | 298 kts | 215° |
| 2026-04-25 22:51 | 51.61570 | -2.90254 | 9349 ft | 296 kts | 215° |
| 2026-04-25 22:51 | 51.59889 | -2.92147 | 8905 ft | 295 kts | 215° |
| 2026-04-25 22:52 | 51.58210 | -2.94033 | 8467 ft | 293 kts | 215° |
| 2026-04-25 22:52 | 51.56548 | -2.95898 | 8038 ft | 291 kts | 215° |
| 2026-04-25 22:52 | 51.54890 | -2.97755 | 7596 ft | 289 kts | 215° |
| 2026-04-25 22:52 | 51.53783 | -2.98994 | 7320 ft | 287 kts | 215° |
| 2026-04-25 22:53 | 51.51623 | -3.01416 | 6758 ft | 284 kts | 215° |
| 2026-04-25 22:53 | 51.49937 | -3.03041 | 6287 ft | 282 kts | 200° |
| 2026-04-25 22:53 | 51.48024 | -3.03556 | 5857 ft | 279 kts | 182° |
| 2026-04-25 22:53 | 51.46094 | -3.03645 | 5427 ft | 276 kts | 180° |
| 2026-04-25 22:54 | 51.44183 | -3.03705 | 4981 ft | 274 kts | 180° |
| 2026-04-25 22:54 | 51.42282 | -3.03775 | 4378 ft | 270 kts | 180° |
| 2026-04-25 22:54 | 51.40429 | -3.03842 | 3814 ft | 261 kts | 180° |
| 2026-04-25 22:54 | 51.38705 | -3.03562 | 3513 ft | 241 kts | 158° |
| 2026-04-25 22:55 | 51.37465 | -3.01989 | 3208 ft | 222 kts | 117° |
| 2026-04-25 22:55 | 51.37168 | -2.99699 | 3010 ft | 207 kts | 89° |
| 2026-04-25 22:55 | 51.37235 | -2.97405 | 2849 ft | 205 kts | 86° |
| 2026-04-25 22:55 | 51.37330 | -2.95209 | 2830 ft | 188 kts | 86° |
| 2026-04-25 22:56 | 51.37413 | -2.93221 | 2856 ft | 172 kts | 86° |
| 2026-04-25 22:56 | 51.37490 | -2.91339 | 2800 ft | 167 kts | 86° |
| 2026-04-25 22:56 | 51.37566 | -2.89494 | 2616 ft | 165 kts | 86° |
| 2026-04-25 22:56 | 51.37638 | -2.87704 | 2405 ft | 155 kts | 87° |
| 2026-04-25 22:57 | 51.37706 | -2.86022 | 2219 ft | 148 kts | 86° |
| 2026-04-25 22:57 | 51.37772 | -2.84393 | 2045 ft | 146 kts | 86° |
| 2026-04-25 22:57 | 51.37836 | -2.82793 | 1836 ft | 144 kts | 86° |
| 2026-04-25 22:57 | 51.37899 | -2.81203 | 1646 ft | 143 kts | 87° |
| 2026-04-25 22:58 | 51.37965 | -2.79563 | 1444 ft | 150 kts | 87° |
| 2026-04-25 22:58 | 51.38029 | -2.77947 | 1239 ft | 143 kts | 87° |
| 2026-04-25 22:58 | 51.38098 | -2.76363 | 1046 ft | 141 kts | 88° |
| 2026-04-25 22:58 | 51.38149 | -2.74794 | 819 ft | 140 kts | 88° |
| 2026-04-25 22:59 | 51.38216 | -2.73228 | 664 ft | 141 kts | 88° |
| 2026-04-25 22:59 | 51.38272 | -2.71767 | 619 ft | 113 kts | 86° |
| 2026-04-25 22:59 | 51.38303 | -2.70976 | 605 ft | 38 kts | 86° |
| 2026-04-25 22:59 | 51.38331 | -2.70777 | 617 ft | 15 kts | 36° |
| 2026-04-25 23:00 | 51.38410 | -2.70724 | 613 ft | 9 kts | 19° |
| 2026-04-25 23:00 | 51.38463 | -2.70730 | 611 ft | 7 kts | 320° |
| 2026-04-25 23:00 | 51.38470 | -2.70817 | 612 ft | 10 kts | 267° |
| 2026-04-25 23:00 | 51.38467 | -2.70901 | 624 ft | 6 kts | 266° |
| 2026-04-25 23:01 | 51.38464 | -2.70969 | 614 ft | 5 kts | 266° |
| 2026-04-25 23:01 | 51.38462 | -2.71021 | 615 ft | 5 kts | 266° |
| 2026-04-25 23:01 | 51.38459 | -2.71093 | 615 ft | 6 kts | 267° |
| 2026-04-25 23:01 | 51.38457 | -2.71184 | 615 ft | 12 kts | 268° |
| 2026-04-25 23:02 | 51.38450 | -2.71323 | 615 ft | 13 kts | 265° |
| 2026-04-25 23:02 | 51.38457 | -2.71408 | 619 ft | 4 kts | 337° |
| 2026-04-25 23:02 | 51.38483 | -2.71436 | 619 ft | 6 kts | 292° |
| 2026-04-25 23:02 | 51.38501 | -2.71474 | 619 ft | 5 kts | 342° |
| 2026-04-25 23:03 | 51.38531 | -2.71479 | 617 ft | 2 kts | 356° |
| 2026-04-25 23:03 | 51.38540 | -2.71480 | 612 ft | 1 kts | 355° |
| 2026-04-25 23:03 | 51.38545 | -2.71481 | 612 ft | 0 kts | 355° |